sensor_id;sensor_type;location;lat;lon;timestamp;P1;durP1;ratioP1;P2;durP2;ratioP2
17347;SDS011;8791;50.876;4.342;2023-01-29T00:01:13;65.17;;;27.60;;
17347;SDS011;8791;50.876;4.342;2023-01-29T00:03:40;66.83;;;29.73;;
17347;SDS011;8791;50.876;4.342;2023-01-29T00:06:09;70.60;;;30.47;;
17347;SDS011;8791;50.876;4.342;2023-01-29T00:08:37;67.60;;;29.50;;
17347;SDS011;8791;50.876;4.342;2023-01-29T00:11:04;70.50;;;29.43;;
17347;SDS011;8791;50.876;4.342;2023-01-29T00:13:32;70.87;;;29.93;;
17347;SDS011;8791;50.876;4.342;2023-01-29T00:16:00;65.50;;;29.90;;
17347;SDS011;8791;50.876;4.342;2023-01-29T00:18:27;71.57;;;29.43;;
17347;SDS011;8791;50.876;4.342;2023-01-29T00:20:55;58.97;;;28.23;;
17347;SDS011;8791;50.876;4.342;2023-01-29T00:23:24;64.20;;;29.27;;
17347;SDS011;8791;50.876;4.342;2023-01-29T00:25:50;63.47;;;28.87;;
17347;SDS011;8791;50.876;4.342;2023-01-29T00:28:17;64.13;;;29.37;;
17347;SDS011;8791;50.876;4.342;2023-01-29T00:30:44;68.70;;;29.27;;
17347;SDS011;8791;50.876;4.342;2023-01-29T00:33:11;67.33;;;30.10;;
17347;SDS011;8791;50.876;4.342;2023-01-29T00:35:38;68.87;;;29.53;;
17347;SDS011;8791;50.876;4.342;2023-01-29T00:38:06;61.13;;;28.70;;
17347;SDS011;8791;50.876;4.342;2023-01-29T00:40:35;63.03;;;29.73;;
17347;SDS011;8791;50.876;4.342;2023-01-29T00:43:17;63.80;;;28.20;;
17347;SDS011;8791;50.876;4.342;2023-01-29T00:46:02;65.20;;;29.80;;
17347;SDS011;8791;50.876;4.342;2023-01-29T00:48:30;62.30;;;29.67;;
17347;SDS011;8791;50.876;4.342;2023-01-29T00:50:57;63.30;;;29.70;;
17347;SDS011;8791;50.876;4.342;2023-01-29T00:53:24;70.80;;;29.63;;
17347;SDS011;8791;50.876;4.342;2023-01-29T00:55:52;64.23;;;28.70;;
17347;SDS011;8791;50.876;4.342;2023-01-29T00:58:19;64.60;;;30.40;;
17347;SDS011;8791;50.876;4.342;2023-01-29T01:00:46;63.10;;;29.60;;
17347;SDS011;8791;50.876;4.342;2023-01-29T01:03:14;65.27;;;29.93;;
17347;SDS011;8791;50.876;4.342;2023-01-29T01:05:39;61.47;;;29.47;;
17347;SDS011;8791;50.876;4.342;2023-01-29T01:08:07;67.13;;;29.63;;
17347;SDS011;8791;50.876;4.342;2023-01-29T01:10:58;70.73;;;29.70;;
17347;SDS011;8791;50.876;4.342;2023-01-29T01:13:26;63.53;;;30.33;;
17347;SDS011;8791;50.876;4.342;2023-01-29T01:15:53;67.07;;;30.33;;
17347;SDS011;8791;50.876;4.342;2023-01-29T01:18:20;63.80;;;29.43;;
17347;SDS011;8791;50.876;4.342;2023-01-29T01:20:47;68.63;;;30.03;;
17347;SDS011;8791;50.876;4.342;2023-01-29T01:23:16;67.03;;;30.37;;
17347;SDS011;8791;50.876;4.342;2023-01-29T01:25:43;69.60;;;30.63;;
17347;SDS011;8791;50.876;4.342;2023-01-29T01:28:12;70.67;;;30.37;;
17347;SDS011;8791;50.876;4.342;2023-01-29T01:30:38;61.03;;;29.37;;
17347;SDS011;8791;50.876;4.342;2023-01-29T01:33:05;60.20;;;27.50;;
17347;SDS011;8791;50.876;4.342;2023-01-29T01:35:32;67.77;;;30.17;;
17347;SDS011;8791;50.876;4.342;2023-01-29T01:37:59;62.80;;;27.57;;
17347;SDS011;8791;50.876;4.342;2023-01-29T01:40:26;63.87;;;28.17;;
17347;SDS011;8791;50.876;4.342;2023-01-29T01:42:54;66.80;;;27.90;;
17347;SDS011;8791;50.876;4.342;2023-01-29T01:45:25;65.73;;;27.40;;
17347;SDS011;8791;50.876;4.342;2023-01-29T01:47:55;62.97;;;28.63;;
17347;SDS011;8791;50.876;4.342;2023-01-29T01:50:26;68.80;;;28.67;;
17347;SDS011;8791;50.876;4.342;2023-01-29T01:52:57;67.43;;;28.83;;
17347;SDS011;8791;50.876;4.342;2023-01-29T01:55:28;64.57;;;28.57;;
17347;SDS011;8791;50.876;4.342;2023-01-29T01:57:59;63.23;;;28.80;;
17347;SDS011;8791;50.876;4.342;2023-01-29T02:00:30;61.93;;;28.60;;
17347;SDS011;8791;50.876;4.342;2023-01-29T02:02:57;61.77;;;28.03;;
17347;SDS011;8791;50.876;4.342;2023-01-29T02:05:43;61.17;;;28.37;;
17347;SDS011;8791;50.876;4.342;2023-01-29T02:08:29;65.40;;;27.73;;
17347;SDS011;8791;50.876;4.342;2023-01-29T02:11:18;63.57;;;27.43;;
17347;SDS011;8791;50.876;4.342;2023-01-29T02:13:45;61.93;;;27.37;;
17347;SDS011;8791;50.876;4.342;2023-01-29T02:16:19;59.20;;;28.47;;
17347;SDS011;8791;50.876;4.342;2023-01-29T02:18:46;60.37;;;27.70;;
17347;SDS011;8791;50.876;4.342;2023-01-29T02:21:19;61.17;;;27.67;;
17347;SDS011;8791;50.876;4.342;2023-01-29T02:24:00;66.93;;;28.13;;
17347;SDS011;8791;50.876;4.342;2023-01-29T02:26:56;62.60;;;28.57;;
17347;SDS011;8791;50.876;4.342;2023-01-29T02:29:33;65.43;;;28.20;;
17347;SDS011;8791;50.876;4.342;2023-01-29T02:32:13;65.90;;;28.47;;
17347;SDS011;8791;50.876;4.342;2023-01-29T02:34:50;59.00;;;26.87;;
17347;SDS011;8791;50.876;4.342;2023-01-29T02:37:45;59.80;;;28.13;;
17347;SDS011;8791;50.876;4.342;2023-01-29T02:40:22;59.03;;;27.87;;
17347;SDS011;8791;50.876;4.342;2023-01-29T02:42:56;63.13;;;28.13;;
17347;SDS011;8791;50.876;4.342;2023-01-29T02:45:34;59.63;;;26.70;;
17347;SDS011;8791;50.876;4.342;2023-01-29T02:48:11;58.10;;;27.37;;
17347;SDS011;8791;50.876;4.342;2023-01-29T02:50:43;62.07;;;27.57;;
17347;SDS011;8791;50.876;4.342;2023-01-29T02:53:14;60.07;;;27.80;;
17347;SDS011;8791;50.876;4.342;2023-01-29T02:55:44;64.10;;;28.07;;
17347;SDS011;8791;50.876;4.342;2023-01-29T02:58:15;62.47;;;27.93;;
17347;SDS011;8791;50.876;4.342;2023-01-29T03:00:47;62.13;;;26.57;;
17347;SDS011;8791;50.876;4.342;2023-01-29T03:03:16;58.73;;;27.03;;
17347;SDS011;8791;50.876;4.342;2023-01-29T03:05:48;67.00;;;29.80;;
17347;SDS011;8791;50.876;4.342;2023-01-29T03:08:22;64.87;;;28.60;;
17347;SDS011;8791;50.876;4.342;2023-01-29T03:11:01;61.10;;;27.87;;
17347;SDS011;8791;50.876;4.342;2023-01-29T03:13:33;61.60;;;27.90;;
17347;SDS011;8791;50.876;4.342;2023-01-29T03:16:07;63.23;;;26.83;;
17347;SDS011;8791;50.876;4.342;2023-01-29T03:18:39;60.37;;;27.27;;
17347;SDS011;8791;50.876;4.342;2023-01-29T03:21:12;61.87;;;28.17;;
17347;SDS011;8791;50.876;4.342;2023-01-29T03:24:01;61.43;;;27.87;;
17347;SDS011;8791;50.876;4.342;2023-01-29T03:26:47;60.47;;;28.40;;
17347;SDS011;8791;50.876;4.342;2023-01-29T03:29:31;57.83;;;26.50;;
17347;SDS011;8791;50.876;4.342;2023-01-29T03:32:18;62.90;;;26.80;;
17347;SDS011;8791;50.876;4.342;2023-01-29T03:34:48;64.27;;;27.07;;
17347;SDS011;8791;50.876;4.342;2023-01-29T03:37:19;66.23;;;28.87;;
17347;SDS011;8791;50.876;4.342;2023-01-29T03:39:52;62.57;;;27.50;;
17347;SDS011;8791;50.876;4.342;2023-01-29T03:42:20;66.40;;;28.07;;
17347;SDS011;8791;50.876;4.342;2023-01-29T03:44:56;61.10;;;28.13;;
17347;SDS011;8791;50.876;4.342;2023-01-29T03:47:31;64.90;;;29.50;;
17347;SDS011;8791;50.876;4.342;2023-01-29T03:50:06;65.20;;;28.07;;
17347;SDS011;8791;50.876;4.342;2023-01-29T03:52:39;62.07;;;28.13;;
17347;SDS011;8791;50.876;4.342;2023-01-29T03:55:11;64.57;;;29.17;;
17347;SDS011;8791;50.876;4.342;2023-01-29T03:57:41;61.63;;;28.33;;
17347;SDS011;8791;50.876;4.342;2023-01-29T04:00:16;61.30;;;26.50;;
17347;SDS011;8791;50.876;4.342;2023-01-29T04:02:49;59.50;;;26.60;;
17347;SDS011;8791;50.876;4.342;2023-01-29T04:05:21;60.03;;;27.43;;
17347;SDS011;8791;50.876;4.342;2023-01-29T04:07:59;61.00;;;27.57;;
17347;SDS011;8791;50.876;4.342;2023-01-29T04:10:30;61.77;;;26.60;;
17347;SDS011;8791;50.876;4.342;2023-01-29T04:13:03;66.90;;;27.33;;
17347;SDS011;8791;50.876;4.342;2023-01-29T04:15:33;59.00;;;26.80;;
17347;SDS011;8791;50.876;4.342;2023-01-29T04:18:06;61.97;;;26.67;;
17347;SDS011;8791;50.876;4.342;2023-01-29T04:20:34;61.17;;;26.87;;
17347;SDS011;8791;50.876;4.342;2023-01-29T04:23:04;61.23;;;27.50;;
17347;SDS011;8791;50.876;4.342;2023-01-29T04:25:35;57.80;;;26.13;;
17347;SDS011;8791;50.876;4.342;2023-01-29T04:28:10;62.37;;;27.30;;
17347;SDS011;8791;50.876;4.342;2023-01-29T04:30:45;64.27;;;26.70;;
17347;SDS011;8791;50.876;4.342;2023-01-29T04:33:22;66.13;;;27.40;;
17347;SDS011;8791;50.876;4.342;2023-01-29T04:36:01;58.90;;;26.57;;
17347;SDS011;8791;50.876;4.342;2023-01-29T04:38:41;64.77;;;27.43;;
17347;SDS011;8791;50.876;4.342;2023-01-29T04:41:17;57.33;;;25.80;;
17347;SDS011;8791;50.876;4.342;2023-01-29T04:43:49;60.60;;;27.40;;
17347;SDS011;8791;50.876;4.342;2023-01-29T04:46:25;69.97;;;28.43;;
17347;SDS011;8791;50.876;4.342;2023-01-29T04:49:08;60.30;;;26.17;;
17347;SDS011;8791;50.876;4.342;2023-01-29T04:51:44;59.97;;;26.87;;
17347;SDS011;8791;50.876;4.342;2023-01-29T04:54:17;64.33;;;27.63;;
17347;SDS011;8791;50.876;4.342;2023-01-29T04:56:53;64.80;;;26.90;;
17347;SDS011;8791;50.876;4.342;2023-01-29T04:59:24;61.43;;;26.70;;
17347;SDS011;8791;50.876;4.342;2023-01-29T05:01:56;62.03;;;26.87;;
17347;SDS011;8791;50.876;4.342;2023-01-29T05:04:27;59.63;;;26.60;;
17347;SDS011;8791;50.876;4.342;2023-01-29T05:06:57;61.97;;;27.23;;
17347;SDS011;8791;50.876;4.342;2023-01-29T05:09:28;58.57;;;26.10;;
17347;SDS011;8791;50.876;4.342;2023-01-29T05:11:56;59.43;;;25.60;;
17347;SDS011;8791;50.876;4.342;2023-01-29T05:14:23;70.43;;;27.00;;
17347;SDS011;8791;50.876;4.342;2023-01-29T05:16:52;62.50;;;26.97;;
17347;SDS011;8791;50.876;4.342;2023-01-29T05:19:21;62.63;;;26.93;;
17347;SDS011;8791;50.876;4.342;2023-01-29T05:21:49;56.10;;;25.37;;
17347;SDS011;8791;50.876;4.342;2023-01-29T05:24:17;55.23;;;25.23;;
17347;SDS011;8791;50.876;4.342;2023-01-29T05:26:46;63.00;;;26.27;;
17347;SDS011;8791;50.876;4.342;2023-01-29T05:29:32;57.27;;;25.20;;
17347;SDS011;8791;50.876;4.342;2023-01-29T05:31:59;55.60;;;25.30;;
17347;SDS011;8791;50.876;4.342;2023-01-29T05:34:26;58.40;;;25.80;;
17347;SDS011;8791;50.876;4.342;2023-01-29T05:36:54;57.97;;;26.53;;
17347;SDS011;8791;50.876;4.342;2023-01-29T05:39:21;64.50;;;27.53;;
17347;SDS011;8791;50.876;4.342;2023-01-29T05:41:48;59.00;;;26.33;;
17347;SDS011;8791;50.876;4.342;2023-01-29T05:44:14;58.80;;;27.03;;
17347;SDS011;8791;50.876;4.342;2023-01-29T05:46:41;63.73;;;25.53;;
17347;SDS011;8791;50.876;4.342;2023-01-29T05:49:09;60.50;;;26.27;;
17347;SDS011;8791;50.876;4.342;2023-01-29T05:51:35;62.23;;;26.90;;
17347;SDS011;8791;50.876;4.342;2023-01-29T05:54:04;64.30;;;26.93;;
17347;SDS011;8791;50.876;4.342;2023-01-29T05:56:30;61.00;;;27.07;;
17347;SDS011;8791;50.876;4.342;2023-01-29T05:58:57;62.47;;;27.00;;
17347;SDS011;8791;50.876;4.342;2023-01-29T06:01:24;59.57;;;26.53;;
17347;SDS011;8791;50.876;4.342;2023-01-29T06:03:51;60.77;;;26.40;;
17347;SDS011;8791;50.876;4.342;2023-01-29T06:06:18;61.10;;;27.43;;
17347;SDS011;8791;50.876;4.342;2023-01-29T06:08:44;60.10;;;26.47;;
17347;SDS011;8791;50.876;4.342;2023-01-29T06:11:13;62.33;;;27.10;;
17347;SDS011;8791;50.876;4.342;2023-01-29T06:13:40;57.87;;;25.77;;
17347;SDS011;8791;50.876;4.342;2023-01-29T06:16:07;53.80;;;26.40;;
17347;SDS011;8791;50.876;4.342;2023-01-29T06:18:36;56.70;;;25.07;;
17347;SDS011;8791;50.876;4.342;2023-01-29T06:21:04;62.00;;;27.27;;
17347;SDS011;8791;50.876;4.342;2023-01-29T06:23:32;58.47;;;25.13;;
17347;SDS011;8791;50.876;4.342;2023-01-29T06:25:59;63.37;;;26.23;;
17347;SDS011;8791;50.876;4.342;2023-01-29T06:28:27;58.37;;;25.50;;
17347;SDS011;8791;50.876;4.342;2023-01-29T06:30:55;63.57;;;27.77;;
17347;SDS011;8791;50.876;4.342;2023-01-29T06:33:23;62.77;;;27.37;;
17347;SDS011;8791;50.876;4.342;2023-01-29T06:35:54;57.47;;;26.97;;
17347;SDS011;8791;50.876;4.342;2023-01-29T06:38:21;62.10;;;27.70;;
17347;SDS011;8791;50.876;4.342;2023-01-29T06:40:49;60.80;;;26.97;;
17347;SDS011;8791;50.876;4.342;2023-01-29T06:43:16;67.97;;;28.27;;
17347;SDS011;8791;50.876;4.342;2023-01-29T06:45:48;65.93;;;27.57;;
17347;SDS011;8791;50.876;4.342;2023-01-29T06:48:15;61.77;;;27.47;;
17347;SDS011;8791;50.876;4.342;2023-01-29T06:50:42;69.40;;;29.87;;
17347;SDS011;8791;50.876;4.342;2023-01-29T06:53:09;60.37;;;28.27;;
17347;SDS011;8791;50.876;4.342;2023-01-29T06:55:36;57.20;;;27.10;;
17347;SDS011;8791;50.876;4.342;2023-01-29T06:58:06;60.97;;;29.97;;
17347;SDS011;8791;50.876;4.342;2023-01-29T07:00:33;61.13;;;26.77;;
17347;SDS011;8791;50.876;4.342;2023-01-29T07:03:02;63.13;;;27.90;;
17347;SDS011;8791;50.876;4.342;2023-01-29T07:05:29;59.33;;;26.37;;
17347;SDS011;8791;50.876;4.342;2023-01-29T07:07:56;58.93;;;27.10;;
17347;SDS011;8791;50.876;4.342;2023-01-29T07:10:24;61.30;;;27.93;;
17347;SDS011;8791;50.876;4.342;2023-01-29T07:12:50;67.40;;;29.50;;
17347;SDS011;8791;50.876;4.342;2023-01-29T07:15:17;62.60;;;27.77;;
17347;SDS011;8791;50.876;4.342;2023-01-29T07:17:54;61.00;;;27.37;;
17347;SDS011;8791;50.876;4.342;2023-01-29T07:20:24;62.80;;;28.93;;
17347;SDS011;8791;50.876;4.342;2023-01-29T07:22:51;61.93;;;28.20;;
17347;SDS011;8791;50.876;4.342;2023-01-29T07:25:18;69.67;;;28.60;;
17347;SDS011;8791;50.876;4.342;2023-01-29T07:27:44;63.57;;;29.67;;
17347;SDS011;8791;50.876;4.342;2023-01-29T07:30:12;65.87;;;28.13;;
17347;SDS011;8791;50.876;4.342;2023-01-29T07:32:39;73.20;;;29.40;;
17347;SDS011;8791;50.876;4.342;2023-01-29T07:35:06;62.97;;;28.63;;
17347;SDS011;8791;50.876;4.342;2023-01-29T07:37:35;64.73;;;28.47;;
17347;SDS011;8791;50.876;4.342;2023-01-29T07:40:02;68.27;;;28.27;;
17347;SDS011;8791;50.876;4.342;2023-01-29T07:42:34;65.07;;;29.00;;
17347;SDS011;8791;50.876;4.342;2023-01-29T07:45:01;70.43;;;29.83;;
17347;SDS011;8791;50.876;4.342;2023-01-29T07:47:28;68.50;;;29.00;;
17347;SDS011;8791;50.876;4.342;2023-01-29T07:49:55;64.63;;;28.73;;
17347;SDS011;8791;50.876;4.342;2023-01-29T07:52:21;68.33;;;29.53;;
17347;SDS011;8791;50.876;4.342;2023-01-29T07:54:49;65.60;;;28.90;;
17347;SDS011;8791;50.876;4.342;2023-01-29T07:57:16;78.67;;;29.83;;
17347;SDS011;8791;50.876;4.342;2023-01-29T07:59:43;63.30;;;29.03;;
17347;SDS011;8791;50.876;4.342;2023-01-29T08:02:10;59.90;;;29.20;;
17347;SDS011;8791;50.876;4.342;2023-01-29T08:04:37;66.63;;;27.70;;
17347;SDS011;8791;50.876;4.342;2023-01-29T08:07:04;77.10;;;29.57;;
17347;SDS011;8791;50.876;4.342;2023-01-29T08:09:31;69.67;;;30.80;;
17347;SDS011;8791;50.876;4.342;2023-01-29T08:11:59;66.93;;;29.60;;
17347;SDS011;8791;50.876;4.342;2023-01-29T08:14:26;61.87;;;28.87;;
17347;SDS011;8791;50.876;4.342;2023-01-29T08:16:53;69.20;;;31.03;;
17347;SDS011;8791;50.876;4.342;2023-01-29T08:19:20;65.03;;;28.37;;
17347;SDS011;8791;50.876;4.342;2023-01-29T08:21:47;63.03;;;29.30;;
17347;SDS011;8791;50.876;4.342;2023-01-29T08:24:14;60.90;;;28.87;;
17347;SDS011;8791;50.876;4.342;2023-01-29T08:26:41;69.17;;;28.77;;
17347;SDS011;8791;50.876;4.342;2023-01-29T08:29:09;63.43;;;28.20;;
17347;SDS011;8791;50.876;4.342;2023-01-29T08:31:36;64.00;;;28.67;;
17347;SDS011;8791;50.876;4.342;2023-01-29T08:34:03;64.97;;;28.27;;
17347;SDS011;8791;50.876;4.342;2023-01-29T08:36:29;67.67;;;29.53;;
17347;SDS011;8791;50.876;4.342;2023-01-29T08:38:56;65.63;;;29.70;;
17347;SDS011;8791;50.876;4.342;2023-01-29T08:41:23;67.67;;;29.53;;
17347;SDS011;8791;50.876;4.342;2023-01-29T08:43:50;59.30;;;28.87;;
17347;SDS011;8791;50.876;4.342;2023-01-29T08:46:18;69.83;;;29.93;;
17347;SDS011;8791;50.876;4.342;2023-01-29T08:48:45;72.57;;;29.37;;
17347;SDS011;8791;50.876;4.342;2023-01-29T08:51:12;64.80;;;28.80;;
17347;SDS011;8791;50.876;4.342;2023-01-29T08:53:39;61.57;;;29.10;;
17347;SDS011;8791;50.876;4.342;2023-01-29T08:56:06;65.20;;;28.47;;
17347;SDS011;8791;50.876;4.342;2023-01-29T08:58:33;63.73;;;29.60;;
17347;SDS011;8791;50.876;4.342;2023-01-29T09:01:06;60.00;;;27.70;;
17347;SDS011;8791;50.876;4.342;2023-01-29T09:03:36;59.50;;;26.93;;
17347;SDS011;8791;50.876;4.342;2023-01-29T09:06:05;57.37;;;28.23;;
17347;SDS011;8791;50.876;4.342;2023-01-29T09:08:32;59.27;;;27.23;;
17347;SDS011;8791;50.876;4.342;2023-01-29T09:10:59;56.60;;;28.07;;
17347;SDS011;8791;50.876;4.342;2023-01-29T09:13:26;57.07;;;29.00;;
17347;SDS011;8791;50.876;4.342;2023-01-29T09:15:53;58.40;;;27.47;;
17347;SDS011;8791;50.876;4.342;2023-01-29T09:18:19;63.40;;;27.53;;
17347;SDS011;8791;50.876;4.342;2023-01-29T09:20:48;55.63;;;27.13;;
17347;SDS011;8791;50.876;4.342;2023-01-29T09:23:15;64.90;;;28.43;;
17347;SDS011;8791;50.876;4.342;2023-01-29T09:25:42;58.70;;;28.57;;
17347;SDS011;8791;50.876;4.342;2023-01-29T09:28:09;64.27;;;29.33;;
17347;SDS011;8791;50.876;4.342;2023-01-29T09:30:35;60.73;;;29.13;;
17347;SDS011;8791;50.876;4.342;2023-01-29T09:33:02;59.40;;;27.17;;
17347;SDS011;8791;50.876;4.342;2023-01-29T09:35:29;63.33;;;27.40;;
17347;SDS011;8791;50.876;4.342;2023-01-29T09:37:58;58.80;;;28.17;;
17347;SDS011;8791;50.876;4.342;2023-01-29T09:40:25;60.07;;;27.43;;
17347;SDS011;8791;50.876;4.342;2023-01-29T09:42:57;58.63;;;27.43;;
17347;SDS011;8791;50.876;4.342;2023-01-29T09:45:28;59.63;;;26.63;;
17347;SDS011;8791;50.876;4.342;2023-01-29T09:47:56;55.97;;;26.27;;
17347;SDS011;8791;50.876;4.342;2023-01-29T09:50:27;64.47;;;26.63;;
17347;SDS011;8791;50.876;4.342;2023-01-29T09:53:06;61.83;;;26.87;;
17347;SDS011;8791;50.876;4.342;2023-01-29T09:55:40;66.03;;;28.53;;
17347;SDS011;8791;50.876;4.342;2023-01-29T09:58:11;62.27;;;28.57;;
17347;SDS011;8791;50.876;4.342;2023-01-29T10:00:45;65.73;;;28.53;;
17347;SDS011;8791;50.876;4.342;2023-01-29T10:03:21;69.93;;;29.20;;
17347;SDS011;8791;50.876;4.342;2023-01-29T10:06:04;71.00;;;30.20;;
17347;SDS011;8791;50.876;4.342;2023-01-29T10:08:55;58.40;;;26.70;;
17347;SDS011;8791;50.876;4.342;2023-01-29T10:11:35;58.73;;;26.00;;
17347;SDS011;8791;50.876;4.342;2023-01-29T10:14:10;58.33;;;27.33;;
17347;SDS011;8791;50.876;4.342;2023-01-29T10:16:47;56.93;;;26.77;;
17347;SDS011;8791;50.876;4.342;2023-01-29T10:22:27;53.63;;;25.03;;
17347;SDS011;8791;50.876;4.342;2023-01-29T10:25:18;53.13;;;26.07;;
17347;SDS011;8791;50.876;4.342;2023-01-29T10:27:47;64.07;;;28.27;;
17347;SDS011;8791;50.876;4.342;2023-01-29T10:30:20;50.20;;;24.30;;
17347;SDS011;8791;50.876;4.342;2023-01-29T10:32:51;50.53;;;24.20;;
17347;SDS011;8791;50.876;4.342;2023-01-29T10:35:21;60.37;;;25.33;;
17347;SDS011;8791;50.876;4.342;2023-01-29T10:37:51;54.60;;;23.37;;
17347;SDS011;8791;50.876;4.342;2023-01-29T10:40:21;58.33;;;26.60;;
17347;SDS011;8791;50.876;4.342;2023-01-29T10:42:51;55.03;;;23.53;;
17347;SDS011;8791;50.876;4.342;2023-01-29T10:45:28;47.80;;;22.73;;
17347;SDS011;8791;50.876;4.342;2023-01-29T10:48:18;50.07;;;22.77;;
17347;SDS011;8791;50.876;4.342;2023-01-29T10:51:00;55.10;;;23.27;;
17347;SDS011;8791;50.876;4.342;2023-01-29T10:53:43;56.17;;;24.37;;
17347;SDS011;8791;50.876;4.342;2023-01-29T10:56:26;54.73;;;24.03;;
17347;SDS011;8791;50.876;4.342;2023-01-29T10:59:05;54.57;;;23.50;;
17347;SDS011;8791;50.876;4.342;2023-01-29T11:01:43;52.23;;;24.40;;
17347;SDS011;8791;50.876;4.342;2023-01-29T11:04:10;48.33;;;22.87;;
17347;SDS011;8791;50.876;4.342;2023-01-29T11:06:38;49.27;;;23.87;;
17347;SDS011;8791;50.876;4.342;2023-01-29T11:09:05;49.27;;;22.07;;
17347;SDS011;8791;50.876;4.342;2023-01-29T11:11:40;46.83;;;22.80;;
17347;SDS011;8791;50.876;4.342;2023-01-29T11:14:11;53.47;;;24.00;;
17347;SDS011;8791;50.876;4.342;2023-01-29T11:16:41;54.67;;;23.40;;
17347;SDS011;8791;50.876;4.342;2023-01-29T11:19:10;54.87;;;22.23;;
17347;SDS011;8791;50.876;4.342;2023-01-29T11:21:49;45.73;;;21.43;;
17347;SDS011;8791;50.876;4.342;2023-01-29T11:24:18;42.90;;;19.30;;
17347;SDS011;8791;50.876;4.342;2023-01-29T11:26:47;44.17;;;20.57;;
17347;SDS011;8791;50.876;4.342;2023-01-29T11:32:02;45.23;;;20.13;;
17347;SDS011;8791;50.876;4.342;2023-01-29T11:34:31;36.23;;;18.67;;
17347;SDS011;8791;50.876;4.342;2023-01-29T11:36:59;43.83;;;19.87;;
17347;SDS011;8791;50.876;4.342;2023-01-29T11:39:28;41.77;;;19.00;;
17347;SDS011;8791;50.876;4.342;2023-01-29T11:41:57;40.53;;;20.00;;
17347;SDS011;8791;50.876;4.342;2023-01-29T11:44:28;35.60;;;19.33;;
17347;SDS011;8791;50.876;4.342;2023-01-29T11:46:58;34.67;;;17.07;;
17347;SDS011;8791;50.876;4.342;2023-01-29T11:49:43;32.17;;;16.60;;
17347;SDS011;8791;50.876;4.342;2023-01-29T11:52:12;36.33;;;17.17;;
17347;SDS011;8791;50.876;4.342;2023-01-29T11:54:45;28.67;;;15.63;;
17347;SDS011;8791;50.876;4.342;2023-01-29T11:57:25;33.03;;;16.90;;
17347;SDS011;8791;50.876;4.342;2023-01-29T11:59:57;30.67;;;15.67;;
17347;SDS011;8791;50.876;4.342;2023-01-29T12:02:35;30.30;;;15.57;;
17347;SDS011;8791;50.876;4.342;2023-01-29T12:05:12;29.70;;;13.73;;
17347;SDS011;8791;50.876;4.342;2023-01-29T12:07:42;32.40;;;15.10;;
17347;SDS011;8791;50.876;4.342;2023-01-29T12:13:04;29.80;;;14.63;;
17347;SDS011;8791;50.876;4.342;2023-01-29T12:15:32;25.93;;;13.93;;
17347;SDS011;8791;50.876;4.342;2023-01-29T12:18:03;28.87;;;14.77;;
17347;SDS011;8791;50.876;4.342;2023-01-29T12:20:37;32.60;;;15.87;;
17347;SDS011;8791;50.876;4.342;2023-01-29T12:23:16;30.27;;;15.30;;
17347;SDS011;8791;50.876;4.342;2023-01-29T12:25:49;35.77;;;16.87;;
17347;SDS011;8791;50.876;4.342;2023-01-29T12:28:33;64.23;;;25.87;;
17347;SDS011;8791;50.876;4.342;2023-01-29T12:31:10;38.67;;;17.00;;
17347;SDS011;8791;50.876;4.342;2023-01-29T12:33:54;45.87;;;17.97;;
17347;SDS011;8791;50.876;4.342;2023-01-29T12:36:28;31.00;;;15.77;;
17347;SDS011;8791;50.876;4.342;2023-01-29T12:38:59;31.70;;;15.33;;
17347;SDS011;8791;50.876;4.342;2023-01-29T12:41:31;30.57;;;15.37;;
17347;SDS011;8791;50.876;4.342;2023-01-29T12:44:05;27.10;;;13.50;;
17347;SDS011;8791;50.876;4.342;2023-01-29T12:46:39;29.67;;;14.40;;
17347;SDS011;8791;50.876;4.342;2023-01-29T12:49:10;30.07;;;15.37;;
17347;SDS011;8791;50.876;4.342;2023-01-29T12:54:34;33.83;;;16.37;;
17347;SDS011;8791;50.876;4.342;2023-01-29T12:57:07;24.07;;;12.63;;
17347;SDS011;8791;50.876;4.342;2023-01-29T12:59:42;25.90;;;15.10;;
17347;SDS011;8791;50.876;4.342;2023-01-29T13:02:13;32.57;;;14.93;;
17347;SDS011;8791;50.876;4.342;2023-01-29T13:04:51;30.93;;;15.23;;
17347;SDS011;8791;50.876;4.342;2023-01-29T13:07:23;33.20;;;15.00;;
17347;SDS011;8791;50.876;4.342;2023-01-29T13:09:56;33.47;;;15.10;;
17347;SDS011;8791;50.876;4.342;2023-01-29T13:12:29;29.07;;;14.27;;
17347;SDS011;8791;50.876;4.342;2023-01-29T13:15:01;24.33;;;13.50;;
17347;SDS011;8791;50.876;4.342;2023-01-29T13:17:32;25.27;;;13.33;;
17347;SDS011;8791;50.876;4.342;2023-01-29T13:20:03;25.43;;;14.47;;
17347;SDS011;8791;50.876;4.342;2023-01-29T13:22:37;23.73;;;13.23;;
17347;SDS011;8791;50.876;4.342;2023-01-29T13:25:05;22.73;;;13.80;;
17347;SDS011;8791;50.876;4.342;2023-01-29T13:27:41;28.97;;;14.40;;
17347;SDS011;8791;50.876;4.342;2023-01-29T13:30:23;24.93;;;14.33;;
17347;SDS011;8791;50.876;4.342;2023-01-29T13:32:52;29.60;;;14.47;;
17347;SDS011;8791;50.876;4.342;2023-01-29T13:35:32;27.50;;;13.90;;
17347;SDS011;8791;50.876;4.342;2023-01-29T13:38:01;23.83;;;14.43;;
17347;SDS011;8791;50.876;4.342;2023-01-29T13:40:29;28.50;;;13.67;;
17347;SDS011;8791;50.876;4.342;2023-01-29T13:42:58;35.47;;;17.40;;
17347;SDS011;8791;50.876;4.342;2023-01-29T13:45:30;28.73;;;14.50;;
17347;SDS011;8791;50.876;4.342;2023-01-29T13:48:07;35.30;;;15.53;;
17347;SDS011;8791;50.876;4.342;2023-01-29T13:50:36;30.27;;;16.13;;
17347;SDS011;8791;50.876;4.342;2023-01-29T13:53:06;32.70;;;16.00;;
17347;SDS011;8791;50.876;4.342;2023-01-29T13:55:43;34.07;;;16.20;;
17347;SDS011;8791;50.876;4.342;2023-01-29T13:58:12;28.17;;;14.57;;
17347;SDS011;8791;50.876;4.342;2023-01-29T14:12:31;26.73;;;11.80;;
17347;SDS011;8791;50.876;4.342;2023-01-29T14:15:12;27.23;;;14.23;;
17347;SDS011;8791;50.876;4.342;2023-01-29T14:18:02;24.83;;;13.50;;
17347;SDS011;8791;50.876;4.342;2023-01-29T14:20:40;27.67;;;14.37;;
17347;SDS011;8791;50.876;4.342;2023-01-29T14:23:21;25.70;;;14.07;;
17347;SDS011;8791;50.876;4.342;2023-01-29T14:25:54;34.73;;;15.07;;
17347;SDS011;8791;50.876;4.342;2023-01-29T14:28:23;28.67;;;15.07;;
17347;SDS011;8791;50.876;4.342;2023-01-29T14:30:53;27.40;;;15.63;;
17347;SDS011;8791;50.876;4.342;2023-01-29T14:33:24;29.93;;;15.20;;
17347;SDS011;8791;50.876;4.342;2023-01-29T14:35:55;29.53;;;15.60;;
17347;SDS011;8791;50.876;4.342;2023-01-29T14:38:24;31.57;;;15.87;;
17347;SDS011;8791;50.876;4.342;2023-01-29T14:41:01;32.50;;;16.07;;
17347;SDS011;8791;50.876;4.342;2023-01-29T14:43:40;36.70;;;16.50;;
17347;SDS011;8791;50.876;4.342;2023-01-29T14:49:11;35.70;;;17.43;;
17347;SDS011;8791;50.876;4.342;2023-01-29T14:51:39;35.40;;;15.33;;
17347;SDS011;8791;50.876;4.342;2023-01-29T14:56:57;33.63;;;15.47;;
17347;SDS011;8791;50.876;4.342;2023-01-29T14:59:28;39.40;;;16.77;;
17347;SDS011;8791;50.876;4.342;2023-01-29T15:02:03;38.40;;;18.00;;
17347;SDS011;8791;50.876;4.342;2023-01-29T15:04:41;42.90;;;19.03;;
17347;SDS011;8791;50.876;4.342;2023-01-29T15:07:14;36.50;;;18.63;;
17347;SDS011;8791;50.876;4.342;2023-01-29T15:09:48;33.07;;;18.13;;
17347;SDS011;8791;50.876;4.342;2023-01-29T15:12:20;38.33;;;18.87;;
17347;SDS011;8791;50.876;4.342;2023-01-29T15:14:57;37.70;;;19.47;;
17347;SDS011;8791;50.876;4.342;2023-01-29T15:17:31;37.30;;;18.87;;
17347;SDS011;8791;50.876;4.342;2023-01-29T15:20:04;34.23;;;18.10;;
17347;SDS011;8791;50.876;4.342;2023-01-29T15:22:54;45.33;;;19.70;;
17347;SDS011;8791;50.876;4.342;2023-01-29T15:25:21;41.83;;;18.87;;
17347;SDS011;8791;50.876;4.342;2023-01-29T15:27:48;36.13;;;18.80;;